Time;durP1;ratioP1;P1;durP2;ratioP2;P2;SDS_P1;SDS_P2;PMS_P1;PMS_P2;Temp;Humidity;BMP_temperature;BMP_pressure;BME280_temperature;BME280_humidity;BME280_pressure;Samples;Min_cycle;Max_cycle;Signal;HPM_P1;HPM_P2
2023/04/17 00:02:09;;;;;;;;;;;15.70;54.60;;;;;;5031939;28;19913;-62
2023/04/17 00:04:35;;;;;;;;;;;15.70;54.60;;;;;;5032193;28;20369;-62
2023/04/17 00:07:02;;;;;;;;;;;15.70;54.60;;;;;;5032246;28;19913;-62
2023/04/17 00:09:28;;;;;;;;;;;15.60;54.70;;;;;;5031991;28;19913;-62
2023/04/17 00:11:53;;;;;;;;;;;15.60;54.70;;;;;;5032338;28;19935;-62
2023/04/17 00:14:19;;;;;;;;;;;15.60;54.70;;;;;;5031981;28;19917;-62
2023/04/17 00:16:44;;;;;;;;;;;15.60;54.70;;;;;;5031661;28;19917;-62
2023/04/17 00:19:10;;;;;;;;;;;15.60;54.80;;;;;;5031693;28;19924;-61
2023/04/17 00:21:35;;;;;;;;;;;15.50;54.80;;;;;;5031874;28;20353;-62
2023/04/17 00:24:01;;;;;;;;;;;15.50;54.80;;;;;;5030363;28;19920;-62
2023/04/17 00:26:26;;;;;;;;;;;15.50;54.80;;;;;;5031871;28;20277;-61
2023/04/17 00:28:51;;;;;;;;;;;15.50;54.80;;;;;;5031296;28;20313;-64
2023/04/17 00:31:17;;;;;;;;;;;15.40;54.80;;;;;;5031599;28;19917;-61
2023/04/17 00:33:42;;;;;;;;;;;15.40;54.90;;;;;;5031699;28;19913;-62
2023/04/17 00:36:08;;;;;;;;;;;15.30;54.90;;;;;;5031332;28;20388;-62
2023/04/17 00:38:34;;;;;;;;;;;15.30;55.00;;;;;;5030757;28;19916;-62
2023/04/17 00:41:00;;;;;;;;;;;15.30;55.00;;;;;;5031687;28;19921;-62
2023/04/17 00:43:25;;;;;;;;;;;15.30;55.10;;;;;;5032092;28;19913;-62
2023/04/17 00:45:51;;;;;;;;;;;15.30;55.10;;;;;;5031371;28;19920;-63
2023/04/17 00:48:17;;;;;;;;;;;15.30;55.20;;;;;;5031303;28;20400;-62
2023/04/17 00:50:43;;;;;;;;;;;15.30;55.10;;;;;;5031551;28;19916;-62
2023/04/17 00:53:09;;;;;;;;;;;15.30;55.20;;;;;;5031939;28;20277;-62
2023/04/17 00:55:36;;;;;;;;;;;15.30;55.20;;;;;;5030303;28;19913;-62
2023/04/17 00:58:02;;;;;;;;;;;15.30;55.20;;;;;;5031752;28;19924;-62
2023/04/17 01:00:27;;;;;;;;;;;15.30;55.20;;;;;;5031207;28;20357;-62
2023/04/17 01:02:55;;;;;;;;;;;15.30;55.20;;;;;;5031049;28;19917;-61
2023/04/17 01:05:20;;;;;;;;;;;15.30;55.10;;;;;;5031099;28;19913;-60
2023/04/17 01:07:46;;;;;;;;;;;15.30;55.10;;;;;;5030061;28;19917;-61
2023/04/17 01:10:11;;;;;;;;;;;15.30;55.10;;;;;;5031067;28;20439;-60
2023/04/17 01:12:37;;;;;;;;;;;15.30;55.10;;;;;;5031289;28;20276;-60
2023/04/17 01:15:02;;;;;;;;;;;15.20;55.10;;;;;;5031201;28;19914;-61
2023/04/17 01:17:28;;;;;;;;;;;15.20;55.20;;;;;;5031070;28;19930;-61
2023/04/17 01:19:53;;;;;;;;;;;15.20;55.20;;;;;;5030899;28;19914;-62
2023/04/17 01:22:19;;;;;;;;;;;15.10;55.10;;;;;;5031243;28;20018;-62
2023/04/17 01:24:45;;;;;;;;;;;15.10;55.20;;;;;;5031125;28;20004;-61
2023/04/17 01:27:12;;;;;;;;;;;15.10;55.20;;;;;;5031161;28;19983;-61
2023/04/17 01:29:38;;;;;;;;;;;15.00;55.40;;;;;;5031155;28;20327;-60
2023/04/17 01:32:03;;;;;;;;;;;15.00;55.40;;;;;;5031448;28;19913;-62
2023/04/17 01:34:29;;;;;;;;;;;15.00;55.40;;;;;;5031154;28;19921;-61
2023/04/17 01:36:54;;;;;;;;;;;15.00;55.40;;;;;;5050621;28;20352;-61
2023/04/17 01:39:20;;;;;;;;;;;15.00;55.50;;;;;;5050687;28;19920;-61
2023/04/17 01:41:45;;;;;;;;;;;15.00;55.50;;;;;;5050548;28;19939;-62
2023/04/17 01:44:11;;;;;;;;;;;15.00;55.50;;;;;;5050615;28;19943;-61
2023/04/17 01:46:36;;;;;;;;;;;14.90;55.50;;;;;;5050950;28;19913;-61
2023/04/17 01:49:02;;;;;;;;;;;15.00;55.50;;;;;;5052326;28;20065;-61
2023/04/17 01:51:27;;;;;;;;;;;15.00;55.50;;;;;;5054100;28;19917;-62
2023/04/17 01:53:53;;;;;;;;;;;15.00;55.50;;;;;;5053200;28;19920;-61
2023/04/17 01:56:18;;;;;;;;;;;15.00;55.50;;;;;;5033999;28;19997;-62
2023/04/17 01:58:44;;;;;;;;;;;15.10;55.50;;;;;;5034497;28;19967;-61
2023/04/17 02:01:09;;;;;;;;;;;15.10;55.40;;;;;;5034245;28;19964;-62
2023/04/17 02:03:35;;;;;;;;;;;15.10;55.40;;;;;;5033602;28;19952;-63
2023/04/17 02:06:00;;;;;;;;;;;15.10;55.30;;;;;;5033455;28;20385;-61
2023/04/17 02:08:26;;;;;;;;;;;15.10;55.40;;;;;;5033959;28;20336;-61
2023/04/17 02:10:51;;;;;;;;;;;15.10;55.30;;;;;;5033936;28;19909;-62
2023/04/17 02:13:17;;;;;;;;;;;15.10;55.30;;;;;;5033569;28;20330;-61
2023/04/17 02:15:42;;;;;;;;;;;15.20;55.30;;;;;;5025384;28;20388;-61
2023/04/17 02:18:08;;;;;;;;;;;15.20;55.20;;;;;;5028721;28;20432;-62
2023/04/17 02:20:34;;;;;;;;;;;15.20;55.20;;;;;;5034351;28;20381;-62
2023/04/17 02:23:00;;;;;;;;;;;15.20;55.10;;;;;;5047494;28;19918;-61
2023/04/17 02:25:26;;;;;;;;;;;15.20;55.10;;;;;;5033132;28;20385;-61
2023/04/17 02:27:52;;;;;;;;;;;15.20;55.10;;;;;;5034080;28;19995;-61
2023/04/17 02:30:17;;;;;;;;;;;15.20;55.00;;;;;;5033356;28;19921;-61
2023/04/17 02:32:44;;;;;;;;;;;15.20;55.00;;;;;;5035550;28;19960;-61
2023/04/17 02:35:09;;;;;;;;;;;15.20;55.00;;;;;;5047258;28;19913;-61
2023/04/17 02:37:35;;;;;;;;;;;15.20;55.00;;;;;;5033667;28;19917;-58
2023/04/17 02:40:00;;;;;;;;;;;15.20;55.00;;;;;;5033443;28;19980;-58
2023/04/17 02:42:26;;;;;;;;;;;15.20;55.00;;;;;;5033156;28;19913;-58
2023/04/17 02:44:52;;;;;;;;;;;15.20;55.00;;;;;;5033749;28;20010;-58
2023/04/17 02:47:18;;;;;;;;;;;15.20;55.00;;;;;;5034017;28;19944;-59
2023/04/17 02:49:43;;;;;;;;;;;15.20;55.00;;;;;;5031974;28;20393;-58
2023/04/17 02:52:09;;;;;;;;;;;15.20;55.00;;;;;;5033521;28;19962;-58
2023/04/17 02:54:34;;;;;;;;;;;15.20;54.90;;;;;;5033493;28;19996;-60
2023/04/17 02:57:00;;;;;;;;;;;15.20;54.90;;;;;;5033227;28;19963;-58
2023/04/17 02:59:26;;;;;;;;;;;15.20;54.90;;;;;;5032888;28;20402;-58
2023/04/17 03:01:52;;;;;;;;;;;15.20;54.90;;;;;;5032837;28;19996;-58
2023/04/17 03:04:17;;;;;;;;;;;15.20;54.80;;;;;;5033503;28;19913;-58
2023/04/17 03:06:42;;;;;;;;;;;15.20;54.70;;;;;;5033519;28;19913;-58
2023/04/17 03:09:10;;;;;;;;;;;15.20;54.80;;;;;;5031850;28;19924;-58
2023/04/17 03:11:36;;;;;;;;;;;15.10;54.70;;;;;;5053403;28;19913;-58
2023/04/17 03:14:02;;;;;;;;;;;15.10;54.70;;;;;;5052922;28;19920;-59
2023/04/17 03:16:27;;;;;;;;;;;15.10;54.70;;;;;;5048444;28;19913;-58
2023/04/17 03:18:53;;;;;;;;;;;15.10;54.70;;;;;;5033159;28;19917;-58
2023/04/17 03:21:19;;;;;;;;;;;15.10;54.80;;;;;;5032995;28;20259;-58
2023/04/17 03:23:44;;;;;;;;;;;15.10;54.80;;;;;;5033170;28;19971;-57
2023/04/17 03:26:10;;;;;;;;;;;15.10;54.70;;;;;;5032917;28;19917;-59
2023/04/17 03:28:35;;;;;;;;;;;15.10;54.60;;;;;;5032917;28;20426;-59
2023/04/17 03:31:00;;;;;;;;;;;15.10;54.50;;;;;;5032626;28;19909;-59
2023/04/17 03:33:26;;;;;;;;;;;15.00;54.50;;;;;;5033066;28;19921;-59
2023/04/17 03:35:51;;;;;;;;;;;14.90;54.60;;;;;;5044496;28;19954;-59
2023/04/17 03:38:17;;;;;;;;;;;14.80;54.60;;;;;;5052393;28;20003;-61
2023/04/17 03:40:42;;;;;;;;;;;14.80;54.60;;;;;;5052644;28;20479;-59
2023/04/17 03:43:08;;;;;;;;;;;14.70;54.60;;;;;;5052304;28;19921;-59
2023/04/17 03:45:33;;;;;;;;;;;14.70;54.70;;;;;;5052578;28;20289;-58
2023/04/17 03:47:59;;;;;;;;;;;14.60;54.80;;;;;;5052920;28;20241;-58
2023/04/17 03:50:25;;;;;;;;;;;14.50;54.80;;;;;;5052344;28;19912;-59
2023/04/17 03:52:50;;;;;;;;;;;14.50;54.90;;;;;;5048957;28;19919;-59
2023/04/17 03:55:16;;;;;;;;;;;14.40;55.00;;;;;;5032281;28;19913;-59
2023/04/17 03:57:41;;;;;;;;;;;14.30;55.10;;;;;;5031878;28;19917;-58
2023/04/17 04:00:09;;;;;;;;;;;14.30;55.10;;;;;;5032057;28;19919;-58
2023/04/17 04:02:35;;;;;;;;;;;14.30;55.20;;;;;;5032469;28;19995;-58
2023/04/17 04:05:00;;;;;;;;;;;14.30;55.20;;;;;;5031836;28;20333;-58
2023/04/17 04:07:26;;;;;;;;;;;14.30;55.30;;;;;;5032010;28;20011;-58
2023/04/17 04:09:51;;;;;;;;;;;14.20;55.30;;;;;;5038292;28;19913;-58
2023/04/17 04:12:16;;;;;;;;;;;14.20;55.30;;;;;;5045313;28;19917;-58
2023/04/17 04:14:42;;;;;;;;;;;14.20;55.30;;;;;;5032294;28;19929;-58
2023/04/17 04:17:07;;;;;;;;;;;14.20;55.40;;;;;;5031949;28;19920;-58
2023/04/17 04:19:33;;;;;;;;;;;14.10;55.40;;;;;;5032385;28;19913;-58
2023/04/17 04:21:58;;;;;;;;;;;14.10;55.50;;;;;;5031902;28;19913;-59
2023/04/17 04:24:24;;;;;;;;;;;14.10;55.50;;;;;;5031788;28;19914;-58
2023/04/17 04:26:49;;;;;;;;;;;14.10;55.50;;;;;;5031783;28;19916;-58
2023/04/17 04:29:15;;;;;;;;;;;14.10;55.50;;;;;;5030307;28;19913;-59
2023/04/17 04:31:41;;;;;;;;;;;14.10;55.50;;;;;;5031188;28;19918;-58
2023/04/17 04:34:08;;;;;;;;;;;14.10;55.50;;;;;;5030899;28;19917;-59
2023/04/17 04:36:35;;;;;;;;;;;14.10;55.50;;;;;;5037574;28;19917;-58
2023/04/17 04:39:01;;;;;;;;;;;14.10;55.50;;;;;;5031587;28;19965;-59
2023/04/17 04:41:28;;;;;;;;;;;14.10;55.50;;;;;;5030839;28;20300;-59
2023/04/17 04:43:54;;;;;;;;;;;14.00;55.50;;;;;;5029883;28;19917;-59
2023/04/17 04:46:19;;;;;;;;;;;14.00;55.60;;;;;;5031555;28;20280;-58
2023/04/17 04:48:44;;;;;;;;;;;14.00;55.60;;;;;;5031555;28;20361;-58
2023/04/17 04:51:10;;;;;;;;;;;13.90;55.60;;;;;;5031689;28;19951;-59
2023/04/17 04:53:35;;;;;;;;;;;13.90;55.70;;;;;;5031250;28;20000;-58
2023/04/17 04:56:01;;;;;;;;;;;13.90;55.80;;;;;;5045003;28;19999;-59
2023/04/17 04:58:28;;;;;;;;;;;13.90;55.80;;;;;;5031141;28;20423;-59
2023/04/17 05:00:54;;;;;;;;;;;13.90;55.80;;;;;;5028418;28;20423;-59
2023/04/17 05:03:21;;;;;;;;;;;13.90;55.80;;;;;;5030895;28;20008;-61
2023/04/17 05:05:46;;;;;;;;;;;13.90;55.80;;;;;;5031556;28;20302;-62
2023/04/17 05:08:12;;;;;;;;;;;14.00;55.80;;;;;;5031560;28;19995;-61
2023/04/17 05:10:38;;;;;;;;;;;13.90;55.80;;;;;;5031002;28;19918;-63
2023/04/17 05:13:03;;;;;;;;;;;13.90;55.80;;;;;;5029129;28;20000;-62
2023/04/17 05:15:29;;;;;;;;;;;14.00;55.70;;;;;;5029439;28;19959;-61
2023/04/17 05:17:54;;;;;;;;;;;14.00;55.70;;;;;;5028592;28;20315;-61
2023/04/17 05:20:20;;;;;;;;;;;14.00;55.70;;;;;;5029390;28;20373;-61
2023/04/17 05:22:45;;;;;;;;;;;14.10;55.70;;;;;;5028881;28;20463;-61
2023/04/17 05:25:11;;;;;;;;;;;14.10;55.60;;;;;;5032180;28;19917;-61
2023/04/17 05:27:36;;;;;;;;;;;14.10;55.50;;;;;;5033494;28;19925;-62
2023/04/17 05:30:02;;;;;;;;;;;14.10;55.50;;;;;;5035253;28;19919;-62
2023/04/17 05:32:29;;;;;;;;;;;14.20;55.40;;;;;;5035065;28;19914;-62
2023/04/17 05:34:55;;;;;;;;;;;14.20;55.40;;;;;;5037431;28;19971;-62
2023/04/17 05:37:20;;;;;;;;;;;14.30;55.40;;;;;;5043888;28;20366;-62
2023/04/17 05:39:46;;;;;;;;;;;14.30;55.20;;;;;;5035147;28;19932;-62
2023/04/17 05:42:11;;;;;;;;;;;14.30;55.20;;;;;;5033639;28;20264;-62
2023/04/17 05:44:38;;;;;;;;;;;14.30;55.10;;;;;;5034781;28;19920;-62
2023/04/17 05:47:03;;;;;;;;;;;14.40;55.10;;;;;;5034278;28;20063;-62
2023/04/17 05:49:28;;;;;;;;;;;14.40;54.90;;;;;;5033958;28;20424;-62
2023/04/17 05:51:54;;;;;;;;;;;14.50;54.80;;;;;;5034845;28;20392;-62
2023/04/17 05:54:19;;;;;;;;;;;14.50;54.70;;;;;;5033431;28;20011;-60
2023/04/17 05:56:45;;;;;;;;;;;14.60;54.70;;;;;;5034503;28;19972;-60
2023/04/17 05:59:10;;;;;;;;;;;14.60;54.50;;;;;;5034335;28;19967;-61
2023/04/17 06:01:36;;;;;;;;;;;14.60;54.50;;;;;;5042897;28;19924;-60
2023/04/17 06:04:01;;;;;;;;;;;14.70;54.40;;;;;;5049290;28;19917;-61
2023/04/17 06:06:27;;;;;;;;;;;14.70;54.20;;;;;;5025197;28;19914;-60
2023/04/17 06:08:53;;;;;;;;;;;14.70;54.20;;;;;;5018592;28;19964;-61
2023/04/17 06:11:19;;;;;;;;;;;14.80;54.00;;;;;;5032801;28;19913;-60
2023/04/17 06:13:44;;;;;;;;;;;14.80;54.00;;;;;;5033007;28;19917;-62
2023/04/17 06:16:10;;;;;;;;;;;14.90;53.70;;;;;;5024121;28;19921;-60
2023/04/17 06:18:35;;;;;;;;;;;15.00;53.60;;;;;;5021796;28;19924;-60
2023/04/17 06:21:01;;;;;;;;;;;15.10;53.50;;;;;;5029631;28;19987;-60
2023/04/17 06:23:26;;;;;;;;;;;15.10;53.40;;;;;;5032106;28;19956;-60
2023/04/17 06:25:52;;;;;;;;;;;15.20;53.20;;;;;;5033171;28;19913;-60
2023/04/17 06:28:17;;;;;;;;;;;15.20;53.10;;;;;;5031008;28;19920;-60
2023/04/17 06:30:43;;;;;;;;;;;15.30;52.50;;;;;;5018486;28;19909;-60
2023/04/17 06:33:08;;;;;;;;;;;15.40;52.30;;;;;;5020839;28;19925;-60
2023/04/17 06:35:35;;;;;;;;;;;15.40;52.00;;;;;;5031270;28;19956;-60
2023/04/17 06:38:00;;;;;;;;;;;15.50;51.90;;;;;;5043089;28;19924;-61
2023/04/17 06:40:26;;;;;;;;;;;15.60;52.00;;;;;;5033577;28;19924;-61
2023/04/17 06:42:51;;;;;;;;;;;15.70;52.00;;;;;;5033268;28;20052;-61
2023/04/17 06:45:17;;;;;;;;;;;15.80;51.90;;;;;;5030299;28;19965;-60
2023/04/17 06:47:44;;;;;;;;;;;16.00;51.50;;;;;;5020403;28;19914;-60
2023/04/17 06:50:09;;;;;;;;;;;16.10;51.00;;;;;;5013773;28;19918;-60
2023/04/17 06:52:35;;;;;;;;;;;16.20;50.50;;;;;;5026146;28;19936;-61
2023/04/17 06:55:01;;;;;;;;;;;16.30;50.60;;;;;;5022361;28;19913;-61
2023/04/17 06:57:26;;;;;;;;;;;16.40;50.50;;;;;;5025939;28;19987;-61
2023/04/17 06:59:52;;;;;;;;;;;16.60;50.10;;;;;;5032106;28;20399;-61
2023/04/17 07:02:17;;;;;;;;;;;16.70;49.30;;;;;;5032406;28;19917;-60
2023/04/17 07:04:42;;;;;;;;;;;16.80;49.10;;;;;;5032614;28;20379;-61
2023/04/17 07:07:08;;;;;;;;;;;16.90;49.00;;;;;;5018242;28;20008;-61
2023/04/17 07:09:33;;;;;;;;;;;17.10;48.30;;;;;;5027822;28;19987;-61
2023/04/17 07:11:59;;;;;;;;;;;17.20;48.40;;;;;;5026921;28;19921;-61
2023/04/17 07:14:25;;;;;;;;;;;17.30;48.30;;;;;;5030849;28;19921;-60
2023/04/17 07:16:50;;;;;;;;;;;17.50;48.00;;;;;;5027613;28;19924;-60
2023/04/17 07:19:16;;;;;;;;;;;17.70;47.20;;;;;;5023014;28;19971;-61
2023/04/17 07:21:41;;;;;;;;;;;17.70;46.70;;;;;;5019710;28;20327;-60
2023/04/17 07:24:06;;;;;;;;;;;17.80;46.70;;;;;;5023220;28;19921;-61
2023/04/17 07:26:32;;;;;;;;;;;18.00;46.90;;;;;;5016087;28;20136;-59
2023/04/17 07:28:57;;;;;;;;;;;18.20;46.60;;;;;;5031134;28;19965;-63
2023/04/17 07:31:23;;;;;;;;;;;18.40;45.90;;;;;;5030155;28;19917;-59
2023/04/17 07:33:48;;;;;;;;;;;18.50;45.60;;;;;;5032636;28;19917;-59
2023/04/17 07:36:14;;;;;;;;;;;18.80;45.70;;;;;;5043525;28;19922;-60
2023/04/17 07:38:41;;;;;;;;;;;19.00;44.70;;;;;;5031787;28;20023;-60
2023/04/17 07:41:06;;;;;;;;;;;19.20;43.80;;;;;;5015607;28;20265;-60
2023/04/17 07:43:31;;;;;;;;;;;19.30;43.00;;;;;;5035910;28;19924;-61
2023/04/17 07:45:57;;;;;;;;;;;19.50;43.20;;;;;;5031689;28;19925;-60
2023/04/17 07:48:23;;;;;;;;;;;19.70;41.90;;;;;;5023970;28;20373;-61
2023/04/17 07:50:49;;;;;;;;;;;19.80;41.10;;;;;;5030012;28;19944;-60
2023/04/17 07:53:14;;;;;;;;;;;20.00;41.00;;;;;;5032378;28;19971;-60
2023/04/17 07:55:40;;;;;;;;;;;20.10;41.10;;;;;;5027574;28;19917;-59
2023/04/17 07:58:05;;;;;;;;;;;20.30;41.00;;;;;;5032409;28;19917;-60
2023/04/17 08:00:31;;;;;;;;;;;20.40;40.10;;;;;;5026957;28;19921;-60
2023/04/17 08:02:57;;;;;;;;;;;20.50;39.90;;;;;;5037848;28;20016;-61
2023/04/17 08:05:22;;;;;;;;;;;20.60;39.80;;;;;;5031542;28;19928;-61
2023/04/17 08:07:48;;;;;;;;;;;20.80;39.90;;;;;;5031791;28;20321;-60
2023/04/17 08:10:13;;;;;;;;;;;21.00;39.70;;;;;;5031783;28;20348;-60
2023/04/17 08:12:39;;;;;;;;;;;21.10;38.80;;;;;;5031596;28;20383;-61
2023/04/17 08:15:04;;;;;;;;;;;21.20;38.50;;;;;;5031943;28;19913;-61
2023/04/17 08:17:30;;;;;;;;;;;21.30;38.10;;;;;;5025363;28;19917;-61
2023/04/17 08:20:00;;;;;;;;;;;21.50;37.90;;;;;;5031955;28;19920;-61
2023/04/17 08:22:27;;;;;;;;;;;21.70;38.10;;;;;;5031600;28;19913;-62
2023/04/17 08:24:56;;;;;;;;;;;21.70;36.60;;;;;;5031870;28;19920;-61
2023/04/17 08:27:23;;;;;;;;;;;21.80;36.80;;;;;;5031528;28;19913;-59
2023/04/17 08:29:48;;;;;;;;;;;22.00;36.50;;;;;;5031905;28;19916;-61
2023/04/17 08:32:14;;;;;;;;;;;22.20;36.50;;;;;;5030859;28;20361;-61
2023/04/17 08:34:40;;;;;;;;;;;22.40;36.50;;;;;;5033028;28;19917;-60
2023/04/17 08:37:05;;;;;;;;;;;22.70;36.80;;;;;;5049743;28;19927;-60
2023/04/17 08:39:31;;;;;;;;;;;23.20;37.80;;;;;;5030926;28;19936;-61
2023/04/17 08:41:59;;;;;;;;;;;23.60;36.60;;;;;;5025358;28;19913;-60
2023/04/17 08:44:24;;;;;;;;;;;24.00;35.10;;;;;;5031271;28;19917;-64
2023/04/17 08:46:50;;;;;;;;;;;24.20;34.60;;;;;;5023794;28;19920;-61
2023/04/17 08:49:16;;;;;;;;;;;24.30;33.70;;;;;;5028998;28;19913;-61
2023/04/17 08:51:41;;;;;;;;;;;24.50;34.00;;;;;;5029157;28;20384;-61
2023/04/17 08:54:07;;;;;;;;;;;24.70;34.80;;;;;;5027509;28;20377;-61
2023/04/17 08:56:32;;;;;;;;;;;25.10;33.50;;;;;;5033625;28;19924;-60
2023/04/17 08:58:57;;;;;;;;;;;25.30;32.00;;;;;;5030790;28;19980;-60
2023/04/17 09:01:23;;;;;;;;;;;25.30;31.40;;;;;;5029347;28;19913;-61
2023/04/17 09:03:50;;;;;;;;;;;25.40;30.90;;;;;;5025722;28;20400;-61
2023/04/17 09:06:16;;;;;;;;;;;25.60;31.20;;;;;;5030924;28;19952;-61
2023/04/17 09:09:03;;;;;;;;;;;25.80;30.60;;;;;;5029106;28;19964;-61
2023/04/17 09:11:29;;;;;;;;;;;26.10;30.90;;;;;;5029197;28;20187;-61
2023/04/17 09:13:54;;;;;;;;;;;26.60;29.60;;;;;;5030178;28;19917;-61
2023/04/17 09:16:20;;;;;;;;;;;26.80;28.90;;;;;;5030632;28;19963;-61
2023/04/17 09:18:46;;;;;;;;;;;27.20;28.60;;;;;;5028700;28;19921;-61
2023/04/17 09:21:15;;;;;;;;;;;27.50;28.40;;;;;;5030806;28;20108;-61
2023/04/17 09:23:48;;;;;;;;;;;28.00;28.50;;;;;;5030393;28;19918;-61
2023/04/17 09:26:23;;;;;;;;;;;28.40;27.70;;;;;;5031447;28;19913;-60
2023/04/17 09:29:02;;;;;;;;;;;28.70;26.40;;;;;;5030940;28;19921;-60
2023/04/17 09:31:29;;;;;;;;;;;28.80;27.00;;;;;;5031157;28;20004;-60
2023/04/17 09:33:56;;;;;;;;;;;29.20;26.70;;;;;;5029644;28;20266;-61
2023/04/17 09:36:21;;;;;;;;;;;29.50;25.10;;;;;;5030207;28;19921;-61
2023/04/17 09:38:47;;;;;;;;;;;29.50;24.80;;;;;;5030251;28;19925;-60
2023/04/17 09:41:26;;;;;;;;;;;29.70;24.20;;;;;;5028751;28;20338;-60
2023/04/17 09:43:56;;;;;;;;;;;29.80;24.50;;;;;;5030786;28;19936;-60
2023/04/17 09:46:30;;;;;;;;;;;30.00;23.60;;;;;;5030752;28;19987;-61
2023/04/17 09:48:59;;;;;;;;;;;30.00;22.70;;;;;;5029408;28;19921;-60
2023/04/17 09:51:25;;;;;;;;;;;29.90;22.70;;;;;;5028629;28;19920;-61
2023/04/17 09:53:51;;;;;;;;;;;29.90;22.90;;;;;;5029667;28;19913;-61
2023/04/17 09:56:20;;;;;;;;;;;30.00;23.10;;;;;;5030503;28;19956;-61
2023/04/17 09:58:46;;;;;;;;;;;30.10;22.20;;;;;;5029949;28;19921;-59
2023/04/17 10:01:12;;;;;;;;;;;30.20;22.20;;;;;;5038346;28;20455;-60
2023/04/17 10:03:38;;;;;;;;;;;30.40;23.10;;;;;;5030653;28;20003;-59
2023/04/17 10:06:04;;;;;;;;;;;30.70;21.90;;;;;;5027180;28;20419;-59
2023/04/17 10:08:30;;;;;;;;;;;30.70;21.40;;;;;;5029063;28;19917;-60
2023/04/17 10:11:01;;;;;;;;;;;30.60;21.20;;;;;;5037447;28;19917;-60
2023/04/17 10:13:28;;;;;;;;;;;30.80;21.70;;;;;;5033715;28;20377;-60
2023/04/17 10:15:54;;;;;;;;;;;31.00;21.50;;;;;;5033398;28;19909;-60
2023/04/17 10:18:21;;;;;;;;;;;30.90;20.40;;;;;;5032804;28;20261;-59
2023/04/17 10:20:47;;;;;;;;;;;30.70;21.20;;;;;;5034018;28;20296;-60
2023/04/17 10:23:32;;;;;;;;;;;30.50;20.80;;;;;;5032930;28;19924;-60
2023/04/17 10:26:16;;;;;;;;;;;30.20;21.20;;;;;;5025933;28;19918;-61
2023/04/17 10:28:48;;;;;;;;;;;29.80;21.30;;;;;;5033345;28;19963;-61
2023/04/17 10:31:14;;;;;;;;;;;29.60;21.90;;;;;;5031381;28;19917;-61
2023/04/17 10:33:49;;;;;;;;;;;29.20;21.50;;;;;;5033003;28;19924;-61
2023/04/17 10:36:33;;;;;;;;;;;29.00;21.20;;;;;;5033548;28;19932;-60
2023/04/17 10:39:14;;;;;;;;;;;29.10;21.70;;;;;;5028684;28;19925;-59
2023/04/17 10:41:59;;;;;;;;;;;29.50;21.60;;;;;;5032917;28;19953;-60
2023/04/17 10:44:24;;;;;;;;;;;29.80;21.10;;;;;;5029970;28;19917;-60
2023/04/17 10:46:50;;;;;;;;;;;30.20;20.70;;;;;;5033492;28;19909;-60
2023/04/17 10:49:15;;;;;;;;;;;30.60;20.80;;;;;;5032915;28;19968;-61
2023/04/17 10:51:41;;;;;;;;;;;31.00;19.80;;;;;;5031946;28;19951;-60
2023/04/17 10:54:09;;;;;;;;;;;31.30;19.00;;;;;;5032115;28;19924;-60
2023/04/17 10:56:37;;;;;;;;;;;31.50;19.10;;;;;;5032333;28;19952;-63
2023/04/17 10:59:02;;;;;;;;;;;31.70;18.90;;;;;;5031451;28;19947;-60
2023/04/17 11:01:30;;;;;;;;;;;31.60;18.60;;;;;;5031956;28;19917;-60
2023/04/17 11:03:58;;;;;;;;;;;31.70;19.10;;;;;;5031393;28;19917;-60
2023/04/17 11:06:27;;;;;;;;;;;31.70;19.10;;;;;;5029415;28;19921;-61
2023/04/17 11:08:54;;;;;;;;;;;31.60;18.40;;;;;;5032818;28;19917;-60
2023/04/17 11:11:19;;;;;;;;;;;31.60;18.90;;;;;;5049027;28;20336;-60
2023/04/17 11:13:45;;;;;;;;;;;31.70;18.70;;;;;;5036715;28;19918;-61
2023/04/17 11:16:11;;;;;;;;;;;31.90;18.60;;;;;;5032716;28;19924;-59
2023/04/17 11:18:36;;;;;;;;;;;31.80;17.90;;;;;;5028159;28;19918;-60
2023/04/17 11:21:02;;;;;;;;;;;31.80;18.20;;;;;;5030021;28;19945;-59
2023/04/17 11:23:35;;;;;;;;;;;31.70;18.10;;;;;;5032787;28;19932;-60
2023/04/17 11:26:00;;;;;;;;;;;31.70;18.20;;;;;;5031269;28;20295;-60
2023/04/17 11:28:26;;;;;;;;;;;31.50;18.30;;;;;;5032788;28;19913;-60
2023/04/17 11:30:52;;;;;;;;;;;31.50;17.80;;;;;;5031376;28;19979;-60
2023/04/17 11:33:17;;;;;;;;;;;31.40;18.20;;;;;;5031985;28;19917;-62
2023/04/17 11:35:43;;;;;;;;;;;31.30;18.00;;;;;;5029483;28;19909;-60
2023/04/17 11:38:21;;;;;;;;;;;31.00;17.90;;;;;;5032335;28;20019;-65
2023/04/17 11:40:51;;;;;;;;;;;30.40;18.40;;;;;;5031130;28;19952;-60
2023/04/17 11:43:17;;;;;;;;;;;30.30;19.00;;;;;;5031883;28;19917;-66
2023/04/17 11:45:43;;;;;;;;;;;30.40;18.70;;;;;;5032094;28;20024;-60
2023/04/17 11:48:10;;;;;;;;;;;30.00;19.00;;;;;;5031137;28;19962;-60
2023/04/17 11:50:36;;;;;;;;;;;30.20;19.50;;;;;;5029225;28;19952;-60
2023/04/17 11:53:02;;;;;;;;;;;30.40;19.50;;;;;;5032445;28;19991;-60
2023/04/17 11:55:30;;;;;;;;;;;30.30;18.80;;;;;;5023671;28;19925;-60
2023/04/17 11:57:57;;;;;;;;;;;30.40;19.00;;;;;;5012513;28;19960;-60
2023/04/17 12:00:27;;;;;;;;;;;30.60;18.90;;;;;;5030194;28;19929;-60
2023/04/17 12:02:53;;;;;;;;;;;30.70;18.90;;;;;;5032240;28;19913;-61
2023/04/17 12:05:19;;;;;;;;;;;31.00;18.60;;;;;;5030141;28;19921;-60
2023/04/17 12:07:44;;;;;;;;;;;31.00;18.50;;;;;;5032350;28;19917;-60
2023/04/17 12:10:10;;;;;;;;;;;31.10;18.40;;;;;;5017539;28;19941;-60
2023/04/17 12:12:35;;;;;;;;;;;31.40;19.00;;;;;;5012610;28;19914;-60
2023/04/17 12:15:02;;;;;;;;;;;31.80;19.10;;;;;;5014843;28;19918;-61
2023/04/17 12:17:28;;;;;;;;;;;31.40;18.50;;;;;;5012621;28;19927;-60
2023/04/17 12:19:54;;;;;;;;;;;30.80;18.70;;;;;;5030204;28;19996;-61
2023/04/17 12:22:19;;;;;;;;;;;30.10;18.80;;;;;;5026263;28;19913;-60
2023/04/17 12:24:45;;;;;;;;;;;29.20;19.60;;;;;;5026110;28;19913;-61
2023/04/17 12:27:10;;;;;;;;;;;28.50;20.10;;;;;;5030640;28;19917;-61
2023/04/17 12:29:35;;;;;;;;;;;28.30;20.30;;;;;;5025290;28;19913;-61
2023/04/17 12:32:01;;;;;;;;;;;28.30;20.20;;;;;;5030508;28;19913;-61
2023/04/17 12:34:26;;;;;;;;;;;28.20;20.30;;;;;;5030500;28;19917;-60
2023/04/17 12:36:52;;;;;;;;;;;27.80;20.80;;;;;;5032658;28;19923;-62
2023/04/17 12:39:17;;;;;;;;;;;28.00;21.00;;;;;;5030973;28;19931;-61
2023/04/17 12:41:43;;;;;;;;;;;28.50;21.00;;;;;;5031430;28;19913;-61
2023/04/17 12:44:08;;;;;;;;;;;28.80;20.30;;;;;;5029875;28;19927;-63
2023/04/17 12:46:34;;;;;;;;;;;28.10;20.60;;;;;;5031833;28;19913;-61
2023/04/17 12:49:00;;;;;;;;;;;27.50;21.10;;;;;;5029935;28;20404;-61
2023/04/17 12:51:28;;;;;;;;;;;27.20;21.60;;;;;;5031431;28;20222;-61
2023/04/17 12:53:54;;;;;;;;;;;26.70;21.70;;;;;;5029789;28;19939;-61
2023/04/17 12:56:20;;;;;;;;;;;26.20;22.30;;;;;;5031338;28;19913;-60
2023/04/17 12:58:45;;;;;;;;;;;26.00;22.80;;;;;;5029584;28;20387;-61
2023/04/17 13:01:11;;;;;;;;;;;26.50;22.20;;;;;;5031084;28;20016;-63
2023/04/17 13:03:36;;;;;;;;;;;27.30;21.80;;;;;;5029858;28;20032;-60
2023/04/17 13:06:01;;;;;;;;;;;27.80;21.00;;;;;;5031064;28;19986;-60
2023/04/17 13:08:28;;;;;;;;;;;27.70;21.00;;;;;;5025307;28;19925;-61
2023/04/17 13:10:55;;;;;;;;;;;27.20;21.00;;;;;;5011256;28;19960;-60
2023/04/17 13:13:20;;;;;;;;;;;26.70;21.40;;;;;;5013612;28;19917;-61
2023/04/17 13:15:46;;;;;;;;;;;26.50;21.50;;;;;;5030957;28;19916;-61
2023/04/17 13:18:12;;;;;;;;;;;26.80;21.70;;;;;;5030498;28;19921;-61
2023/04/17 13:20:37;;;;;;;;;;;27.30;21.50;;;;;;5031013;28;19914;-62
2023/04/17 13:23:02;;;;;;;;;;;27.70;21.10;;;;;;5030171;28;19920;-63
2023/04/17 13:25:28;;;;;;;;;;;27.80;20.80;;;;;;5028645;28;20415;-62
2023/04/17 13:27:54;;;;;;;;;;;27.90;20.50;;;;;;5030323;28;20353;-62
2023/04/17 13:30:20;;;;;;;;;;;28.00;20.40;;;;;;5030779;28;19913;-61
2023/04/17 13:32:45;;;;;;;;;;;28.10;20.50;;;;;;5031106;28;19967;-61
2023/04/17 13:35:12;;;;;;;;;;;28.10;20.40;;;;;;5036415;28;19968;-61
2023/04/17 13:37:38;;;;;;;;;;;27.80;20.30;;;;;;5031189;28;20024;-61
2023/04/17 13:40:04;;;;;;;;;;;27.60;20.40;;;;;;5030643;28;19921;-60
2023/04/17 13:42:30;;;;;;;;;;;27.20;20.50;;;;;;5030081;28;19914;-61
2023/04/17 13:44:55;;;;;;;;;;;26.70;21.00;;;;;;5032425;28;19996;-62
2023/04/17 13:47:21;;;;;;;;;;;26.20;21.60;;;;;;5018192;28;20315;-62
2023/04/17 13:49:46;;;;;;;;;;;25.70;22.20;;;;;;5028985;28;19963;-61
2023/04/17 13:52:11;;;;;;;;;;;25.30;22.70;;;;;;5031875;28;19923;-61
2023/04/17 13:54:37;;;;;;;;;;;25.00;23.20;;;;;;5033159;28;20434;-61
2023/04/17 13:57:02;;;;;;;;;;;24.70;23.70;;;;;;5034709;28;20387;-60
2023/04/17 13:59:28;;;;;;;;;;;24.40;24.20;;;;;;5032892;28;20025;-61
2023/04/17 14:01:53;;;;;;;;;;;24.10;24.60;;;;;;5034437;28;19960;-62
2023/04/17 14:04:19;;;;;;;;;;;23.90;25.10;;;;;;5032275;28;20292;-63
2023/04/17 14:06:48;;;;;;;;;;;23.70;25.50;;;;;;5045445;28;19913;-63
2023/04/17 14:09:14;;;;;;;;;;;23.50;25.90;;;;;;5033166;28;19928;-62
2023/04/17 14:11:40;;;;;;;;;;;23.40;26.30;;;;;;5033951;28;19920;-63